Time;durP1;ratioP1;P1;durP2;ratioP2;P2;SDS_P1;SDS_P2;PMS_P1;PMS_P2;Temp;Humidity;BMP_temperature;BMP_pressure;BME280_temperature;BME280_humidity;BME280_pressure;Samples;Min_cycle;Max_cycle;Signal;HPM_P1;HPM_P2
2022/09/12 00:01:57;;;;;;;5.95;2.85;;;;;;;10.39;100.00;98163.63;5172858;27;20050;-49
2022/09/12 00:04:23;;;;;;;3.28;2.97;;;;;;;10.49;100.00;98155.44;5173012;27;20053;-53
2022/09/12 00:06:50;;;;;;;4.60;3.75;;;;;;;10.23;100.00;98172.16;5172723;27;20504;-49
2022/09/12 00:09:17;;;;;;;3.70;3.40;;;;;;;10.23;100.00;98164.75;5172645;27;20047;-50
2022/09/12 00:11:46;;;;;;;4.03;2.97;;;;;;;10.29;100.00;98165.19;5172524;27;20081;-47
2022/09/12 00:14:14;;;;;;;3.97;3.38;;;;;;;10.35;100.00;98161.69;5172685;27;20505;-49
2022/09/12 00:16:41;;;;;;;5.13;3.95;;;;;;;10.32;100.00;98167.94;5172709;27;20141;-49
2022/09/12 00:19:08;;;;;;;5.13;3.88;;;;;;;10.51;100.00;98168.78;5173128;27;20110;-48
2022/09/12 00:21:36;;;;;;;4.68;4.10;;;;;;;10.32;100.00;98170.66;5172651;27;20054;-48
2022/09/12 00:24:04;;;;;;;5.43;4.00;;;;;;;10.28;100.00;98169.09;5172484;27;20079;-49
2022/09/12 00:26:31;;;;;;;5.03;4.53;;;;;;;10.17;100.00;98160.81;5172377;27;20046;-49
2022/09/12 00:28:57;;;;;;;5.57;4.30;;;;;;;10.19;100.00;98161.19;5172338;27;20050;-48
2022/09/12 00:31:25;;;;;;;5.75;4.68;;;;;;;10.18;100.00;98162.38;5172545;27;20144;-47
2022/09/12 00:33:52;;;;;;;5.07;3.88;;;;;;;9.82;100.00;98153.25;5172362;27;20110;-48
2022/09/12 00:36:20;;;;;;;6.80;4.78;;;;;;;10.10;100.00;98172.53;5172387;27;20528;-47
2022/09/12 00:38:47;;;;;;;5.65;4.45;;;;;;;10.03;100.00;98156.09;5172115;27;20046;-50
2022/09/12 00:41:18;;;;;;;9.25;4.72;;;;;;;10.27;100.00;98165.59;5172101;27;20425;-48
2022/09/12 00:43:46;;;;;;;6.22;4.93;;;;;;;10.05;100.00;98161.94;5174892;27;20391;-48
2022/09/12 00:46:25;;;;;;;6.60;4.38;;;;;;;10.09;100.00;98151.78;5179349;27;20118;-49
2022/09/12 00:48:56;;;;;;;6.22;4.53;;;;;;;10.11;100.00;98163.16;5179505;27;20482;-48
2022/09/12 00:51:22;;;;;;;8.35;4.38;;;;;;;10.04;100.00;98168.59;5179060;27;20083;-48
2022/09/12 00:53:53;;;;;;;6.60;4.85;;;;;;;10.10;100.00;98163.53;5179174;27;20054;-48
2022/09/12 00:56:21;;;;;;;6.47;5.45;;;;;;;10.08;100.00;98155.69;5179038;27;20046;-49
2022/09/12 00:58:54;;;;;;;6.03;4.95;;;;;;;9.98;100.00;98153.69;5179354;27;20042;-47
2022/09/12 01:01:21;;;;;;;7.20;4.97;;;;;;;10.04;100.00;98156.88;5178622;27;20086;-48
2022/09/12 01:03:47;;;;;;;13.50;5.68;;;;;;;10.25;100.00;98156.91;5178918;27;20509;-49
2022/09/12 01:06:17;;;;;;;6.50;4.75;;;;;;;10.12;100.00;98153.75;5178816;27;20050;-48
2022/09/12 01:08:46;;;;;;;6.25;4.93;;;;;;;10.07;100.00;98164.31;5178822;27;20053;-49
2022/09/12 01:11:12;;;;;;;5.57;4.43;;;;;;;9.70;100.00;98162.59;5178772;27;20549;-49
2022/09/12 01:13:39;;;;;;;4.85;4.18;;;;;;;10.08;100.00;98149.44;5178783;27;20046;-50
2022/09/12 01:16:07;;;;;;;6.57;4.70;;;;;;;10.02;100.00;98165.44;5179077;27;20042;-49
2022/09/12 01:18:49;;;;;;;11.23;5.28;;;;;;;9.97;100.00;98154.09;5178559;27;20528;-50
2022/09/12 01:21:22;;;;;;;6.43;4.93;;;;;;;9.90;100.00;98161.13;5178938;27;20042;-53
2022/09/12 01:24:10;;;;;;;5.72;4.65;;;;;;;9.90;100.00;98152.91;5178648;27;20046;-52
2022/09/12 01:27:09;;;;;;;5.78;4.72;;;;;;;9.95;100.00;98154.47;5178561;27;20046;-49
2022/09/12 01:30:02;;;;;;;7.65;4.65;;;;;;;10.26;100.00;98160.47;5174478;27;20050;-50
2022/09/12 01:32:40;;;;;;;6.75;4.80;;;;;;;10.35;100.00;98174.59;5178582;27;20050;-50
2022/09/12 01:35:18;;;;;;;6.57;5.28;;;;;;;10.22;100.00;98176.88;5178570;27;20458;-49
2022/09/12 01:37:52;;;;;;;8.00;5.57;;;;;;;10.14;100.00;98178.03;5178377;27;20046;-49
2022/09/12 01:40:26;;;;;;;6.50;5.10;;;;;;;10.05;100.00;98174.84;5178945;27;20049;-50
2022/09/12 01:43:02;;;;;;;8.27;6.55;;;;;;;10.06;100.00;98179.16;5178472;27;20050;-52
2022/09/12 01:45:34;;;;;;;7.35;5.40;;;;;;;10.19;100.00;98183.13;5178335;27;20042;-51
2022/09/12 01:48:12;;;;;;;6.68;5.53;;;;;;;10.23;100.00;98189.41;5178837;27;20061;-49
2022/09/12 01:50:45;;;;;;;8.40;5.80;;;;;;;9.98;100.00;98186.56;5178153;27;20118;-50
2022/09/12 01:53:17;;;;;;;6.30;4.67;;;;;;;9.92;100.00;98201.00;5178490;27;20054;-50
2022/09/12 01:55:48;;;;;;;9.95;6.22;;;;;;;9.95;100.00;98181.84;5174905;27;20315;-49
2022/09/12 01:58:19;;;;;;;7.88;5.38;;;;;;;10.02;100.00;98170.16;5174715;27;20103;-48
2022/09/12 02:00:49;;;;;;;10.98;7.10;;;;;;;10.26;100.00;98172.25;5174620;27;20054;-49
2022/09/12 02:03:19;;;;;;;17.75;5.97;;;;;;;10.33;100.00;98176.94;5174902;27;20469;-49
2022/09/12 02:05:51;;;;;;;7.65;5.75;;;;;;;9.71;100.00;98175.09;5174715;27;20045;-50
2022/09/12 02:08:21;;;;;;;12.30;5.57;;;;;;;10.03;100.00;98182.66;5174669;27;20050;-49
2022/09/12 02:10:54;;;;;;;8.25;6.30;;;;;;;10.04;100.00;98171.34;5174979;27;20046;-49
2022/09/12 02:13:26;;;;;;;8.35;5.72;;;;;;;9.87;100.00;98178.31;5174436;27;20053;-52
2022/09/12 02:15:57;;;;;;;9.73;5.65;;;;;;;9.84;100.00;98179.06;5174734;27;20066;-50
2022/09/12 02:18:28;;;;;;;7.80;6.00;;;;;;;10.24;100.00;98176.50;5174377;27;20077;-52
2022/09/12 02:20:56;;;;;;;15.55;5.93;;;;;;;9.88;100.00;98190.03;5174622;27;20153;-49
2022/09/12 02:23:25;;;;;;;14.68;6.07;;;;;;;9.89;100.00;98178.69;5174692;27;20046;-50
2022/09/12 02:25:55;;;;;;;6.45;5.75;;;;;;;9.96;100.00;98171.69;5174461;27;20042;-49
2022/09/12 02:28:27;;;;;;;14.43;5.22;;;;;;;9.93;100.00;98184.22;5174374;27;20050;-49
2022/09/12 02:31:04;;;;;;;14.93;5.85;;;;;;;9.82;100.00;98180.63;5174297;27;20045;-49
2022/09/12 02:33:38;;;;;;;15.38;5.65;;;;;;;9.78;100.00;98185.28;5174522;27;20050;-49
2022/09/12 02:36:13;;;;;;;6.85;4.95;;;;;;;9.90;100.00;98187.72;5173973;27;20046;-49
2022/09/12 02:38:44;;;;;;;11.18;6.05;;;;;;;9.79;100.00;98182.16;5174205;27;20050;-49
2022/09/12 02:41:13;;;;;;;13.88;5.93;;;;;;;9.77;100.00;98179.03;5173984;27;20420;-51
2022/09/12 02:43:39;;;;;;;11.93;6.10;;;;;;;9.59;100.00;98184.41;5174408;27;20094;-50
2022/09/12 02:46:12;;;;;;;13.60;5.25;;;;;;;9.61;100.00;98178.56;5174336;27;20042;-49
2022/09/12 02:48:42;;;;;;;14.05;5.53;;;;;;;9.76;100.00;98171.97;5174039;27;20046;-50
2022/09/12 02:51:09;;;;;;;6.72;4.75;;;;;;;9.80;100.00;98164.59;5174001;27;20098;-49
2022/09/12 02:53:36;;;;;;;5.70;4.45;;;;;;;9.52;100.00;98186.31;5173844;27;20053;-48
2022/09/12 02:56:05;;;;;;;6.55;4.97;;;;;;;9.90;100.00;98171.28;5173987;27;20042;-48
2022/09/12 02:58:31;;;;;;;5.72;4.45;;;;;;;9.71;100.00;98191.50;5173670;27;20531;-49
2022/09/12 03:01:10;;;;;;;5.43;4.30;;;;;;;9.81;100.00;98196.25;5174069;27;20053;-49
2022/09/12 03:03:54;;;;;;;5.00;4.22;;;;;;;9.74;100.00;98185.28;5174254;27;20042;-50
2022/09/12 03:06:28;;;;;;;6.95;4.25;;;;;;;9.60;100.00;98185.22;5173281;27;20087;-49
2022/09/12 03:09:03;;;;;;;5.40;3.85;;;;;;;9.59;100.00;98180.88;5173978;27;20046;-48
2022/09/12 03:11:57;;;;;;;5.50;3.97;;;;;;;9.59;100.00;98187.13;5173528;27;20056;-49
2022/09/12 03:14:44;;;;;;;5.50;3.65;;;;;;;9.76;100.00;98185.66;5163647;27;20058;-49
2022/09/12 03:17:21;;;;;;;6.60;3.83;;;;;;;9.84;100.00;98186.50;5173482;27;20046;-51
2022/09/12 03:19:57;;;;;;;9.18;4.07;;;;;;;9.53;100.00;98180.47;5173489;27;20528;-49
2022/09/12 03:22:31;;;;;;;4.93;3.78;;;;;;;9.60;100.00;98190.69;5173563;27;20046;-50
2022/09/12 03:25:05;;;;;;;5.20;4.00;;;;;;;9.50;100.00;98194.91;5173830;27;20506;-52
2022/09/12 03:27:36;;;;;;;6.28;4.20;;;;;;;9.49;100.00;98196.06;5173464;27;20549;-52
2022/09/12 03:30:05;;;;;;;5.65;3.92;;;;;;;9.60;100.00;98196.94;5173230;27;20086;-49
2022/09/12 03:32:42;;;;;;;6.65;3.92;;;;;;;9.69;100.00;98212.22;5173398;27;20050;-49
2022/09/12 03:35:09;;;;;;;8.73;3.67;;;;;;;9.51;100.00;98204.69;5173628;27;20085;-49
2022/09/12 03:37:35;;;;;;;5.93;4.63;;;;;;;9.54;100.00;98201.19;5173487;27;20050;-48
2022/09/12 03:40:03;;;;;;;10.57;4.35;;;;;;;9.56;100.00;98207.06;5173565;27;20050;-49
2022/09/12 03:42:29;;;;;;;10.90;4.72;;;;;;;9.52;100.00;98213.69;5173135;27;20528;-48
2022/09/12 03:44:55;;;;;;;7.03;4.65;;;;;;;9.56;100.00;98215.28;5173618;27;20064;-52
2022/09/12 03:47:21;;;;;;;7.53;4.20;;;;;;;9.65;100.00;98215.72;5173230;27;20518;-51
2022/09/12 03:49:47;;;;;;;8.13;4.40;;;;;;;9.60;100.00;98213.34;5173149;27;20136;-49
2022/09/12 03:52:14;;;;;;;7.93;4.72;;;;;;;9.56;100.00;98214.47;5172796;27;20501;-49
2022/09/12 03:54:42;;;;;;;17.20;5.15;;;;;;;9.49;100.00;98225.38;5173123;27;20099;-51
2022/09/12 03:57:08;;;;;;;17.00;5.50;;;;;;;9.42;100.00;98237.84;5172795;27;20582;-51
2022/09/12 03:59:34;;;;;;;12.38;5.78;;;;;;;9.55;100.00;98227.38;5173171;27;20046;-51
2022/09/12 04:02:00;;;;;;;9.98;5.57;;;;;;;9.48;100.00;98221.06;5172849;27;20141;-50
2022/09/12 04:04:26;;;;;;;8.65;5.18;;;;;;;9.60;100.00;98223.50;5172931;27;20101;-49
2022/09/12 04:06:53;;;;;;;11.60;6.57;;;;;;;9.83;100.00;98226.78;5173000;27;20042;-52
2022/09/12 04:09:20;;;;;;;8.88;5.40;;;;;;;9.66;100.00;98232.91;5172550;27;20190;-51
2022/09/12 04:11:46;;;;;;;7.22;5.47;;;;;;;9.71;100.00;98242.72;5172950;27;20524;-49
2022/09/12 04:14:12;;;;;;;13.27;6.45;;;;;;;9.54;100.00;98225.03;5172552;27;20061;-49
2022/09/12 04:16:38;;;;;;;10.60;5.95;;;;;;;9.47;100.00;98233.19;5172991;27;20054;-49
2022/09/12 04:19:05;;;;;;;11.55;5.90;;;;;;;9.26;100.00;98245.50;5171634;27;20145;-48
2022/09/12 04:21:31;;;;;;;11.45;6.28;;;;;;;9.54;100.00;98238.72;5172591;27;20462;-52
2022/09/12 04:23:57;;;;;;;11.10;6.07;;;;;;;9.69;100.00;98242.31;5172170;27;20548;-49
2022/09/12 04:26:24;;;;;;;12.80;6.20;;;;;;;9.79;100.00;98253.31;5172516;27;20042;-51
2022/09/12 04:28:53;;;;;;;9.82;5.07;;;;;;;9.57;100.00;98255.16;5172453;27;20515;-48
2022/09/12 04:31:21;;;;;;;13.00;5.68;;;;;;;9.87;100.00;98260.44;5172586;27;20061;-51
2022/09/12 04:33:52;;;;;;;6.57;4.60;;;;;;;9.72;100.00;98269.72;5172309;27;20054;-50
2022/09/12 04:36:18;;;;;;;13.48;5.38;;;;;;;9.53;100.00;98270.75;5172422;27;20054;-50
2022/09/12 04:38:46;;;;;;;12.93;5.47;;;;;;;9.67;100.00;98270.09;5172528;27;20046;-50
2022/09/12 04:41:14;;;;;;;7.45;4.80;;;;;;;9.52;100.00;98265.66;5172165;27;20050;-49
2022/09/12 04:43:42;;;;;;;8.07;5.20;;;;;;;9.95;100.00;98276.91;5172287;27;20105;-51
2022/09/12 04:46:10;;;;;;;8.18;5.45;;;;;;;9.85;100.00;98279.19;5172027;27;20050;-48
2022/09/12 04:48:36;;;;;;;20.50;6.10;;;;;;;9.74;100.00;98283.81;5172500;27;20050;-49
2022/09/12 04:51:07;;;;;;;20.55;5.55;;;;;;;9.65;100.00;98286.09;5172039;27;20054;-48
2022/09/12 04:53:34;;;;;;;16.08;5.75;;;;;;;9.43;100.00;98279.69;5171943;27;20046;-49
2022/09/12 04:56:02;;;;;;;20.25;6.40;;;;;;;9.49;100.00;98289.09;5172119;27;20050;-51
2022/09/12 04:58:28;;;;;;;13.13;6.20;;;;;;;9.53;100.00;98286.38;5171834;27;20046;-49
2022/09/12 05:00:55;;;;;;;11.70;5.75;;;;;;;9.67;100.00;98289.25;5171966;27;20413;-49
2022/09/12 05:03:21;;;;;;;9.07;5.10;;;;;;;9.30;100.00;98292.06;5171760;27;20144;-49
2022/09/12 05:05:47;;;;;;;16.85;5.10;;;;;;;9.40;100.00;98288.63;5172295;27;20417;-49
2022/09/12 05:08:13;;;;;;;7.00;4.57;;;;;;;9.24;100.00;98293.56;5171856;27;20053;-50
2022/09/12 05:10:40;;;;;;;7.60;5.07;;;;;;;9.39;100.00;98311.66;5172286;27;20047;-48
2022/09/12 05:13:06;;;;;;;12.02;4.85;;;;;;;9.35;100.00;98289.75;5172149;27;20054;-48
2022/09/12 05:15:33;;;;;;;7.70;5.57;;;;;;;9.40;100.00;98305.84;5171809;27;20046;-52
2022/09/12 05:18:00;;;;;;;6.60;4.95;;;;;;;9.40;100.00;98296.84;5171340;27;20057;-49
2022/09/12 05:20:26;;;;;;;11.73;5.57;;;;;;;9.48;100.00;98295.72;5171722;27;20528;-49
2022/09/12 05:22:52;;;;;;;7.25;5.05;;;;;;;9.42;100.00;98306.22;5171384;27;20560;-48
2022/09/12 05:25:18;;;;;;;8.88;5.45;;;;;;;9.68;100.00;98299.00;5171553;27;20053;-48
2022/09/12 05:27:44;;;;;;;7.88;4.80;;;;;;;9.75;100.00;98311.97;5171587;27;20050;-49
2022/09/12 05:30:11;;;;;;;5.70;4.75;;;;;;;9.88;100.00;98313.22;5173361;27;20320;-50
2022/09/12 05:32:37;;;;;;;7.32;4.93;;;;;;;9.54;100.00;98318.84;5175349;27;20049;-52
2022/09/12 05:35:05;;;;;;;10.15;5.35;;;;;;;9.91;100.00;98326.16;5174925;27;20042;-50
2022/09/12 05:37:31;;;;;;;7.55;5.30;;;;;;;9.60;100.00;98330.22;5175289;27;20046;-50
2022/09/12 05:39:58;;;;;;;6.43;5.13;;;;;;;9.76;100.00;98336.19;5174823;27;20050;-51
2022/09/12 05:42:24;;;;;;;7.65;4.80;;;;;;;9.61;100.00;98351.75;5174856;27;20569;-51
2022/09/12 05:44:50;;;;;;;5.65;4.75;;;;;;;9.68;100.00;98345.53;5174840;27;20096;-49
2022/09/12 05:47:18;;;;;;;5.85;5.20;;;;;;;9.75;100.00;98355.75;5174910;27;20050;-52
2022/09/12 05:49:46;;;;;;;6.85;4.95;;;;;;;9.87;100.00;98366.41;5174769;27;20497;-47
2022/09/12 05:52:13;;;;;;;7.00;4.78;;;;;;;9.72;100.00;98372.94;5174788;27;20050;-47
2022/09/12 05:54:40;;;;;;;5.18;4.07;;;;;;;9.61;100.00;98357.22;5174869;27;20073;-47
2022/09/12 05:57:06;;;;;;;5.97;4.50;;;;;;;9.79;100.00;98379.25;5174669;27;20047;-49
2022/09/12 05:59:32;;;;;;;6.88;4.85;;;;;;;9.85;100.00;98376.94;5175095;27;20050;-48
2022/09/12 06:01:59;;;;;;;7.20;4.32;;;;;;;9.81;100.00;98387.09;5174516;27;20050;-48
2022/09/12 06:04:25;;;;;;;6.70;4.90;;;;;;;9.60;100.00;98387.69;5174930;27;20046;-47
2022/09/12 06:06:52;;;;;;;7.60;5.13;;;;;;;9.94;100.00;98391.13;5174651;27;20508;-51
2022/09/12 06:09:18;;;;;;;9.20;4.78;;;;;;;9.90;100.00;98393.03;5174829;27;20428;-51
2022/09/12 06:11:45;;;;;;;6.30;4.55;;;;;;;9.93;100.00;98396.94;5174440;27;20065;-52
2022/09/12 06:14:15;;;;;;;7.93;4.63;;;;;;;9.84;100.00;98405.50;5174907;27;20050;-49
2022/09/12 06:16:41;;;;;;;13.35;5.38;;;;;;;9.82;100.00;98414.06;5174364;27;20055;-51
2022/09/12 06:19:13;;;;;;;8.55;4.70;;;;;;;9.77;100.00;98419.13;5174653;27;20054;-47
2022/09/12 06:21:39;;;;;;;5.47;3.92;;;;;;;9.79;100.00;98414.03;5174594;27;20109;-50
2022/09/12 06:24:06;;;;;;;7.28;4.70;;;;;;;9.82;100.00;98425.03;5174239;27;20077;-47
2022/09/12 06:26:33;;;;;;;6.30;4.43;;;;;;;9.79;100.00;98419.53;5174463;27;20050;-48
2022/09/12 06:29:00;;;;;;;6.13;4.43;;;;;;;9.82;100.00;98426.97;5174066;27;20053;-49
2022/09/12 06:31:28;;;;;;;8.82;5.85;;;;;;;9.87;100.00;98429.38;5174301;27;20046;-49
2022/09/12 06:33:56;;;;;;;5.05;4.30;;;;;;;9.70;100.00;98433.53;5174133;27;20068;-48
2022/09/12 06:36:23;;;;;;;6.05;5.03;;;;;;;9.50;100.00;98437.63;5174232;27;20050;-48
2022/09/12 06:38:53;;;;;;;5.25;4.10;;;;;;;9.51;100.00;98437.25;5173888;27;20050;-50
2022/09/12 06:41:20;;;;;;;9.35;5.38;;;;;;;9.92;100.00;98418.06;5173222;27;20042;-49
2022/09/12 06:43:46;;;;;;;5.28;3.88;;;;;;;9.72;100.00;98433.16;5174183;27;20050;-48
2022/09/12 06:46:13;;;;;;;7.35;4.40;;;;;;;9.51;100.00;98431.00;5174057;27;20096;-49
2022/09/12 06:48:39;;;;;;;5.97;4.45;;;;;;;9.88;100.00;98420.78;5174051;27;20556;-49
2022/09/12 06:51:08;;;;;;;7.13;4.88;;;;;;;9.95;100.00;98436.47;5173961;27;20046;-49
2022/09/12 06:53:35;;;;;;;10.73;4.45;;;;;;;10.09;100.00;98452.25;5174235;27;20050;-49
2022/09/12 06:56:03;;;;;;;5.70;4.07;;;;;;;10.16;100.00;98470.69;5173841;27;20057;-48
2022/09/12 06:58:30;;;;;;;7.95;4.65;;;;;;;10.20;100.00;98496.19;5173923;27;20057;-51
2022/09/12 07:01:02;;;;;;;4.80;4.32;;;;;;;10.14;100.00;98514.91;5173543;27;20046;-50
2022/09/12 07:03:28;;;;;;;5.55;4.25;;;;;;;10.21;100.00;98533.34;5173544;27;20046;-52
2022/09/12 07:05:55;;;;;;;4.82;4.30;;;;;;;10.48;100.00;98545.75;5173467;27;20057;-51
2022/09/12 07:08:21;;;;;;;8.15;5.35;;;;;;;10.19;100.00;98549.38;5173569;27;20520;-52
2022/09/12 07:10:47;;;;;;;6.25;5.07;;;;;;;10.20;100.00;98556.44;5173176;27;20138;-51
2022/09/12 07:13:14;;;;;;;12.18;5.80;;;;;;;10.38;100.00;98557.41;5173234;27;20046;-53
2022/09/12 07:15:40;;;;;;;5.72;5.07;;;;;;;10.02;100.00;98567.97;5171343;27;20073;-50
2022/09/12 07:18:09;;;;;;;6.13;4.95;;;;;;;10.01;100.00;98547.25;5173310;27;20054;-49
2022/09/12 07:20:36;;;;;;;7.40;4.97;;;;;;;10.17;100.00;98538.03;5173583;27;20050;-52
2022/09/12 07:23:02;;;;;;;6.57;4.93;;;;;;;10.18;100.00;98547.81;5173071;27;20054;-53
2022/09/12 07:25:28;;;;;;;5.32;4.63;;;;;;;10.35;100.00;98545.25;5173454;27;20054;-48
2022/09/12 07:27:54;;;;;;;5.93;4.93;;;;;;;10.30;100.00;98558.53;5173146;27;20046;-49
2022/09/12 07:30:22;;;;;;;9.15;4.90;;;;;;;10.01;100.00;98580.09;5173662;27;20073;-51
2022/09/12 07:32:51;;;;;;;8.20;5.35;;;;;;;10.35;100.00;98575.38;5173057;27;20054;-52
2022/09/12 07:35:18;;;;;;;7.72;5.25;;;;;;;10.51;100.00;98588.06;5173157;27;20042;-51
2022/09/12 07:37:44;;;;;;;8.13;5.47;;;;;;;10.31;100.00;98587.47;5172915;27;20125;-51
2022/09/12 07:40:10;;;;;;;6.40;5.47;;;;;;;10.38;100.00;98603.19;5172851;27;20057;-54
2022/09/12 07:42:37;;;;;;;7.32;4.82;;;;;;;10.18;100.00;98599.84;5172777;27;20497;-51
2022/09/12 07:45:03;;;;;;;7.07;5.47;;;;;;;10.28;100.00;98602.72;5172623;27;20640;-51
2022/09/12 07:47:29;;;;;;;8.07;5.95;;;;;;;10.32;100.00;98600.78;5173094;27;20057;-52
2022/09/12 07:49:56;;;;;;;6.40;5.50;;;;;;;10.48;100.00;98619.75;5173013;27;20046;-52
2022/09/12 07:52:23;;;;;;;5.95;5.35;;;;;;;10.50;100.00;98627.59;5172688;27;20053;-53
2022/09/12 07:54:49;;;;;;;6.82;4.68;;;;;;;10.35;100.00;98640.34;5172173;27;20050;-52
2022/09/12 07:57:15;;;;;;;7.05;4.90;;;;;;;10.69;100.00;98641.06;5173263;27;20510;-53
2022/09/12 07:59:41;;;;;;;4.88;4.22;;;;;;;10.90;100.00;98654.19;5172700;27;20058;-52
2022/09/12 08:02:12;;;;;;;7.25;4.75;;;;;;;11.04;100.00;98662.53;5172849;27;20119;-51
2022/09/12 08:04:39;;;;;;;4.88;4.32;;;;;;;10.64;100.00;98665.31;5172690;27;20053;-52
2022/09/12 08:07:05;;;;;;;7.03;4.88;;;;;;;10.92;100.00;98662.81;5172686;27;20054;-51
2022/09/12 08:09:32;;;;;;;6.20;4.68;;;;;;;10.78;100.00;98674.44;5172667;27;20065;-51
2022/09/12 08:11:58;;;;;;;12.10;7.00;;;;;;;11.10;100.00;98671.19;5172864;27;20119;-50
2022/09/12 08:14:24;;;;;;;8.38;6.40;;;;;;;10.73;100.00;98676.72;5172930;27;20552;-51
2022/09/12 08:16:51;;;;;;;6.70;5.10;;;;;;;10.46;100.00;98668.69;5172529;27;20153;-50
2022/09/12 08:19:17;;;;;;;7.95;5.95;;;;;;;10.46;100.00;98634.97;5172893;27;20522;-50
2022/09/12 08:21:43;;;;;;;5.82;5.22;;;;;;;10.47;100.00;98639.31;5172185;27;20046;-51
2022/09/12 08:24:11;;;;;;;6.88;5.65;;;;;;;10.87;100.00;98643.19;5172335;27;20046;-51
2022/09/12 08:26:38;;;;;;;7.50;5.63;;;;;;;10.73;100.00;98650.13;5172269;27;20050;-49
2022/09/12 08:29:04;;;;;;;10.55;5.63;;;;;;;10.68;100.00;98653.22;5172368;27;20050;-49
2022/09/12 08:31:35;;;;;;;8.07;5.60;;;;;;;10.62;100.00;98648.44;5172203;27;20061;-49
2022/09/12 08:34:02;;;;;;;6.20;4.72;;;;;;;10.47;100.00;98659.28;5172395;27;20050;-50
2022/09/12 08:36:28;;;;;;;5.75;3.42;;;;;;;10.43;100.00;98663.94;5172501;27;20061;-50
2022/09/12 08:38:56;;;;;;;5.75;4.68;;;;;;;10.72;100.00;98656.75;5172449;27;20050;-53
2022/09/12 08:41:29;;;;;;;4.75;4.22;;;;;;;10.70;100.00;98672.81;5172387;27;20136;-49
2022/09/12 08:44:16;;;;;;;6.68;3.80;;;;;;;10.91;100.00;98680.44;5172164;27;20054;-54
2022/09/12 08:46:54;;;;;;;4.40;3.92;;;;;;;10.71;100.00;98693.56;5169597;27;20054;-50
2022/09/12 08:49:27;;;;;;;7.75;4.00;;;;;;;10.85;100.00;98701.16;5172073;27;20450;-50
2022/09/12 08:51:56;;;;;;;6.78;3.92;;;;;;;10.94;100.00;98711.81;5172351;27;20061;-50
2022/09/12 08:54:25;;;;;;;4.43;3.88;;;;;;;10.87;100.00;98709.00;5171970;27;20050;-50
2022/09/12 08:56:55;;;;;;;5.32;4.05;;;;;;;10.94;100.00;98712.59;5171815;27;20050;-50
2022/09/12 08:59:23;;;;;;;3.50;3.20;;;;;;;10.83;100.00;98725.44;5171837;27;20042;-49
2022/09/12 09:01:55;;;;;;;3.50;3.20;;;;;;;11.12;100.00;98731.16;5171572;27;20569;-50
2022/09/12 09:04:32;;;;;;;6.38;3.25;;;;;;;11.24;100.00;98741.84;5172411;27;20053;-54
2022/09/12 09:07:21;;;;;;;5.28;3.75;;;;;;;11.01;100.00;98736.56;5175424;27;20413;-53
2022/09/12 09:10:02;;;;;;;5.22;3.97;;;;;;;10.95;100.00;98754.53;5161869;27;20050;-49
2022/09/12 09:12:37;;;;;;;5.15;3.92;;;;;;;11.02;100.00;98757.31;5175683;27;20450;-51
2022/09/12 09:15:20;;;;;;;5.00;4.50;;;;;;;10.95;100.00;98752.56;5175244;27;20050;-52
2022/09/12 09:17:51;;;;;;;4.90;4.10;;;;;;;11.04;100.00;98758.53;5175687;27;20061;-52
2022/09/12 09:20:27;;;;;;;4.88;4.03;;;;;;;10.60;100.00;98772.97;5175230;27;20190;-50
2022/09/12 09:22:58;;;;;;;6.63;3.60;;;;;;;10.70;100.00;98749.59;5175521;27;20050;-50
2022/09/12 09:25:28;;;;;;;3.38;3.00;;;;;;;11.23;100.00;98751.22;5175251;27;20070;-49
2022/09/12 09:28:02;;;;;;;6.53;3.40;;;;;;;10.99;100.00;98774.53;5175299;27;20466;-52
2022/09/12 09:30:30;;;;;;;3.50;3.17;;;;;;;11.16;100.00;98775.88;5175233;27;20061;-51
2022/09/12 09:32:59;;;;;;;4.20;3.63;;;;;;;11.12;100.00;98775.84;5175007;27;20497;-49
2022/09/12 09:35:38;;;;;;;5.60;3.80;;;;;;;11.11;100.00;98779.75;5175000;27;20050;-50
2022/09/12 09:38:16;;;;;;;4.65;3.72;;;;;;;11.06;100.00;98778.16;5175201;27;20644;-50
2022/09/12 09:40:49;;;;;;;3.88;3.17;;;;;;;11.19;100.00;98783.34;5175275;27;20053;-50
2022/09/12 09:43:21;;;;;;;4.43;3.20;;;;;;;11.61;100.00;98799.41;5174811;27;20535;-53
2022/09/12 09:45:49;;;;;;;3.65;3.30;;;;;;;11.45;100.00;98818.09;5174618;27;20058;-51
2022/09/12 09:48:20;;;;;;;3.88;3.22;;;;;;;11.28;100.00;98825.00;5174992;27;20046;-49
2022/09/12 09:50:48;;;;;;;5.00;3.47;;;;;;;11.40;100.00;98830.22;5174833;27;20061;-53
2022/09/12 09:53:25;;;;;;;3.83;3.40;;;;;;;11.22;100.00;98812.78;5175001;27;20050;-51
2022/09/12 09:55:54;;;;;;;5.15;3.50;;;;;;;11.37;100.00;98816.47;5174736;27;20050;-50
2022/09/12 09:58:31;;;;;;;5.47;2.97;;;;;;;11.41;100.00;98831.00;5175117;27;20057;-52
2022/09/12 10:01:03;;;;;;;4.65;3.45;;;;;;;11.27;100.00;98818.72;5174729;27;20175;-50
2022/09/12 10:03:32;;;;;;;3.55;3.20;;;;;;;11.59;100.00;98826.44;5174457;27;20050;-49
2022/09/12 10:06:00;;;;;;;4.75;3.45;;;;;;;11.72;100.00;98846.16;5174541;27;20057;-50
2022/09/12 10:08:28;;;;;;;6.25;3.63;;;;;;;11.42;100.00;98838.84;5174635;27;20171;-51
2022/09/12 10:10:57;;;;;;;5.95;3.88;;;;;;;11.49;100.00;98843.59;5174729;27;20054;-48
2022/09/12 10:13:31;;;;;;;4.85;3.53;;;;;;;11.68;100.00;98853.59;5174541;27;20072;-51
2022/09/12 10:15:59;;;;;;;4.82;3.33;;;;;;;11.41;100.00;98856.47;5173431;27;20050;-49
2022/09/12 10:18:35;;;;;;;5.07;3.58;;;;;;;11.62;100.00;98852.34;5174257;27;20057;-49
2022/09/12 10:21:02;;;;;;;3.95;3.47;;;;;;;11.54;100.00;98863.28;5173743;27;20083;-50
2022/09/12 10:23:36;;;;;;;3.80;3.40;;;;;;;11.73;100.00;98867.75;5174169;27;20050;-50
2022/09/12 10:26:07;;;;;;;4.38;3.65;;;;;;;11.66;100.00;98858.66;5174644;27;20046;-55
2022/09/12 10:28:39;;;;;;;5.53;3.50;;;;;;;11.51;100.00;98871.47;5174254;27;20115;-51
2022/09/12 10:31:07;;;;;;;5.25;3.17;;;;;;;11.45;100.00;98871.03;5173984;27;20046;-50
2022/09/12 10:33:41;;;;;;;4.55;3.25;;;;;;;11.77;100.00;98878.78;5174303;27;20047;-50
2022/09/12 10:36:07;;;;;;;3.85;3.00;;;;;;;11.37;100.00;98868.59;5174010;27;20050;-51
2022/09/12 10:38:33;;;;;;;7.68;3.47;;;;;;;11.31;100.00;98854.44;5174328;27;20125;-50
2022/09/12 10:41:02;;;;;;;4.30;3.42;;;;;;;11.68;100.00;98859.84;5173954;27;20046;-51
2022/09/12 10:43:34;;;;;;;4.95;3.08;;;;;;;11.71;100.00;98875.56;5174160;27;20046;-50
2022/09/12 10:46:21;;;;;;;8.75;3.28;;;;;;;11.54;100.00;98878.97;5173867;27;20531;-50
2022/09/12 10:48:50;;;;;;;3.45;2.97;;;;;;;11.47;100.00;98870.66;5174031;27;20049;-51
2022/09/12 10:51:27;;;;;;;3.60;3.20;;;;;;;11.79;100.00;98876.41;5174140;27;20056;-49
2022/09/12 10:53:55;;;;;;;4.78;3.00;;;;;;;11.55;100.00;98891.50;5173722;27;20046;-49
2022/09/12 10:56:25;;;;;;;4.03;3.05;;;;;;;11.52;100.00;98898.53;5174211;27;20057;-49
2022/09/12 10:59:06;;;;;;;4.18;2.90;;;;;;;11.66;100.00;98886.91;5173848;27;20053;-51
2022/09/12 11:01:40;;;;;;;3.08;2.78;;;;;;;11.57;100.00;98891.94;5174264;27;20054;-50
2022/09/12 11:04:26;;;;;;;2.53;2.33;;;;;;;11.71;100.00;98900.28;5173648;27;20524;-49
2022/09/12 11:07:07;;;;;;;3.08;2.42;;;;;;;11.60;100.00;98920.59;5172737;27;20079;-49
2022/09/12 11:09:40;;;;;;;5.10;2.33;;;;;;;11.77;100.00;98914.47;5173403;27;20089;-54
2022/09/12 11:12:15;;;;;;;3.03;2.40;;;;;;;11.92;100.00;98915.41;5173441;27;20061;-51
2022/09/12 11:14:57;;;;;;;5.75;2.55;;;;;;;11.71;100.00;98925.00;5173445;27;20050;-50
2022/09/12 11:17:35;;;;;;;6.53;3.03;;;;;;;11.54;100.00;98918.19;5173160;27;20129;-48
2022/09/12 11:20:34;;;;;;;2.53;2.33;;;;;;;11.77;100.00;98920.75;5173248;27;20057;-48
2022/09/12 11:23:26;;;;;;;6.40;2.78;;;;;;;11.50;100.00;98917.34;5164117;27;20050;-51
2022/09/12 11:25:59;;;;;;;3.28;2.70;;;;;;;11.68;100.00;98914.00;5172877;27;20369;-49
2022/09/12 11:28:34;;;;;;;2.33;2.13;;;;;;;11.70;100.00;98919.91;5172995;27;20042;-49
2022/09/12 11:31:38;;;;;;;3.33;2.67;;;;;;;11.50;100.00;98914.63;5173028;27;20528;-50
2022/09/12 11:34:08;;;;;;;3.03;2.20;;;;;;;11.49;100.00;98904.78;5173009;27;20065;-49
2022/09/12 11:36:44;;;;;;;2.47;2.28;;;;;;;11.65;100.00;98918.28;5173241;27;20561;-49
2022/09/12 11:39:14;;;;;;;3.47;2.38;;;;;;;11.71;100.00;98902.25;5173297;27;20050;-51
2022/09/12 11:41:42;;;;;;;3.17;1.98;;;;;;;11.69;100.00;98930.06;5172934;27;20090;-49